sensor_id;sensor_type;location;lat;lon;timestamp;P1;durP1;ratioP1;P2;durP2;ratioP2
79460;SDS011;68929;42.666;23.324;2023-06-26T00:00:11;33.00;;;29.40;;
79460;SDS011;68929;42.666;23.324;2023-06-26T00:02:37;26.73;;;23.10;;
79460;SDS011;68929;42.666;23.324;2023-06-26T00:05:02;31.45;;;27.95;;
79460;SDS011;68929;42.666;23.324;2023-06-26T00:07:28;30.48;;;24.92;;
79460;SDS011;68929;42.666;23.324;2023-06-26T00:09:55;30.88;;;22.48;;
79460;SDS011;68929;42.666;23.324;2023-06-26T00:12:20;32.03;;;26.20;;
79460;SDS011;68929;42.666;23.324;2023-06-26T00:14:46;28.73;;;25.65;;
79460;SDS011;68929;42.666;23.324;2023-06-26T00:17:11;26.17;;;22.23;;
79460;SDS011;68929;42.666;23.324;2023-06-26T00:19:36;21.77;;;19.42;;
79460;SDS011;68929;42.666;23.324;2023-06-26T00:22:02;32.63;;;26.67;;
79460;SDS011;68929;42.666;23.324;2023-06-26T00:24:27;29.02;;;24.70;;
79460;SDS011;68929;42.666;23.324;2023-06-26T00:26:52;32.25;;;23.77;;
79460;SDS011;68929;42.666;23.324;2023-06-26T00:29:18;25.92;;;23.30;;
79460;SDS011;68929;42.666;23.324;2023-06-26T00:31:43;29.90;;;25.52;;
79460;SDS011;68929;42.666;23.324;2023-06-26T00:34:08;25.92;;;23.23;;
79460;SDS011;68929;42.666;23.324;2023-06-26T00:36:37;26.45;;;22.65;;
79460;SDS011;68929;42.666;23.324;2023-06-26T00:39:02;23.90;;;21.42;;
79460;SDS011;68929;42.666;23.324;2023-06-26T00:41:28;25.45;;;22.70;;
79460;SDS011;68929;42.666;23.324;2023-06-26T00:43:54;20.30;;;18.02;;
79460;SDS011;68929;42.666;23.324;2023-06-26T00:46:19;22.70;;;20.23;;
79460;SDS011;68929;42.666;23.324;2023-06-26T00:48:45;22.92;;;20.55;;
79460;SDS011;68929;42.666;23.324;2023-06-26T00:51:13;24.42;;;20.48;;
79460;SDS011;68929;42.666;23.324;2023-06-26T00:53:38;21.67;;;19.25;;
79460;SDS011;68929;42.666;23.324;2023-06-26T00:56:04;23.02;;;20.63;;
79460;SDS011;68929;42.666;23.324;2023-06-26T00:58:30;23.58;;;19.23;;
79460;SDS011;68929;42.666;23.324;2023-06-26T01:00:56;25.40;;;21.35;;
79460;SDS011;68929;42.666;23.324;2023-06-26T01:03:22;22.33;;;20.00;;
79460;SDS011;68929;42.666;23.324;2023-06-26T01:05:48;23.98;;;21.42;;
79460;SDS011;68929;42.666;23.324;2023-06-26T01:08:16;21.63;;;18.85;;
79460;SDS011;68929;42.666;23.324;2023-06-26T01:10:42;20.65;;;18.50;;
79460;SDS011;68929;42.666;23.324;2023-06-26T01:13:08;22.50;;;20.25;;
79460;SDS011;68929;42.666;23.324;2023-06-26T01:15:34;22.30;;;20.10;;
79460;SDS011;68929;42.666;23.324;2023-06-26T01:17:59;22.95;;;20.65;;
79460;SDS011;68929;42.666;23.324;2023-06-26T01:20:32;23.08;;;20.67;;
79460;SDS011;68929;42.666;23.324;2023-06-26T01:23:37;19.42;;;17.40;;
79460;SDS011;68929;42.666;23.324;2023-06-26T01:28:32;24.58;;;20.42;;
79460;SDS011;68929;42.666;23.324;2023-06-26T01:30:59;25.08;;;21.50;;
79460;SDS011;68929;42.666;23.324;2023-06-26T01:33:25;23.25;;;20.85;;
79460;SDS011;68929;42.666;23.324;2023-06-26T01:35:52;18.38;;;15.40;;
79460;SDS011;68929;42.666;23.324;2023-06-26T01:38:18;25.05;;;20.33;;
79460;SDS011;68929;42.666;23.324;2023-06-26T01:40:45;23.13;;;19.98;;
79460;SDS011;68929;42.666;23.324;2023-06-26T01:43:15;27.00;;;20.40;;
79460;SDS011;68929;42.666;23.324;2023-06-26T01:45:53;24.03;;;21.33;;
79460;SDS011;68929;42.666;23.324;2023-06-26T01:48:23;22.77;;;20.55;;
79460;SDS011;68929;42.666;23.324;2023-06-26T01:50:53;21.88;;;19.67;;
79460;SDS011;68929;42.666;23.324;2023-06-26T01:53:21;28.73;;;21.85;;
79460;SDS011;68929;42.666;23.324;2023-06-26T01:55:51;25.50;;;21.90;;
79460;SDS011;68929;42.666;23.324;2023-06-26T01:58:21;21.48;;;19.25;;
79460;SDS011;68929;42.666;23.324;2023-06-26T02:00:48;23.90;;;21.23;;
79460;SDS011;68929;42.666;23.324;2023-06-26T02:03:14;22.50;;;19.85;;
79460;SDS011;68929;42.666;23.324;2023-06-26T02:05:39;21.17;;;18.33;;
79460;SDS011;68929;42.666;23.324;2023-06-26T02:08:05;22.50;;;20.20;;
79460;SDS011;68929;42.666;23.324;2023-06-26T02:10:31;20.63;;;18.52;;
79460;SDS011;68929;42.666;23.324;2023-06-26T02:12:56;22.75;;;20.55;;
79460;SDS011;68929;42.666;23.324;2023-06-26T02:15:22;22.35;;;19.13;;
79460;SDS011;68929;42.666;23.324;2023-06-26T02:17:47;24.85;;;21.80;;
79460;SDS011;68929;42.666;23.324;2023-06-26T02:20:16;27.60;;;22.77;;
79460;SDS011;68929;42.666;23.324;2023-06-26T02:22:41;24.55;;;21.88;;
79460;SDS011;68929;42.666;23.324;2023-06-26T02:25:07;23.17;;;20.63;;
79460;SDS011;68929;42.666;23.324;2023-06-26T02:27:33;26.73;;;23.13;;
79460;SDS011;68929;42.666;23.324;2023-06-26T02:29:59;26.67;;;23.88;;
79460;SDS011;68929;42.666;23.324;2023-06-26T02:32:24;25.65;;;22.85;;
79460;SDS011;68929;42.666;23.324;2023-06-26T02:34:49;21.65;;;19.55;;
79460;SDS011;68929;42.666;23.324;2023-06-26T02:37:16;26.00;;;23.20;;
79460;SDS011;68929;42.666;23.324;2023-06-26T02:39:42;27.63;;;24.88;;
79460;SDS011;68929;42.666;23.324;2023-06-26T02:42:08;30.25;;;27.15;;
79460;SDS011;68929;42.666;23.324;2023-06-26T02:44:33;25.08;;;22.58;;
79460;SDS011;68929;42.666;23.324;2023-06-26T02:46:58;23.23;;;20.42;;
79460;SDS011;68929;42.666;23.324;2023-06-26T02:49:24;23.48;;;20.98;;
79460;SDS011;68929;42.666;23.324;2023-06-26T02:51:49;24.35;;;21.63;;
79460;SDS011;68929;42.666;23.324;2023-06-26T02:54:14;25.27;;;22.70;;
79460;SDS011;68929;42.666;23.324;2023-06-26T02:56:40;28.17;;;25.27;;
79460;SDS011;68929;42.666;23.324;2023-06-26T02:59:05;28.17;;;24.00;;
79460;SDS011;68929;42.666;23.324;2023-06-26T03:01:30;27.30;;;24.40;;
79460;SDS011;68929;42.666;23.324;2023-06-26T03:03:56;28.42;;;25.25;;
79460;SDS011;68929;42.666;23.324;2023-06-26T03:06:21;29.33;;;26.33;;
79460;SDS011;68929;42.666;23.324;2023-06-26T03:08:46;26.38;;;23.70;;
79460;SDS011;68929;42.666;23.324;2023-06-26T03:11:12;29.27;;;26.05;;
79460;SDS011;68929;42.666;23.324;2023-06-26T03:13:37;26.83;;;24.25;;
79460;SDS011;68929;42.666;23.324;2023-06-26T03:16:03;31.00;;;27.90;;
79460;SDS011;68929;42.666;23.324;2023-06-26T03:18:29;33.38;;;30.10;;
79460;SDS011;68929;42.666;23.324;2023-06-26T03:20:55;29.02;;;26.23;;
79460;SDS011;68929;42.666;23.324;2023-06-26T03:23:21;27.02;;;24.52;;
79460;SDS011;68929;42.666;23.324;2023-06-26T03:25:48;32.00;;;28.48;;
79460;SDS011;68929;42.666;23.324;2023-06-26T03:28:14;32.90;;;29.67;;
79460;SDS011;68929;42.666;23.324;2023-06-26T03:30:39;33.72;;;30.05;;
79460;SDS011;68929;42.666;23.324;2023-06-26T03:33:05;33.67;;;30.33;;
79460;SDS011;68929;42.666;23.324;2023-06-26T03:35:30;33.25;;;29.65;;
79460;SDS011;68929;42.666;23.324;2023-06-26T03:37:56;33.28;;;29.88;;
79460;SDS011;68929;42.666;23.324;2023-06-26T03:40:22;28.80;;;26.00;;
79460;SDS011;68929;42.666;23.324;2023-06-26T03:42:47;35.50;;;31.88;;
79460;SDS011;68929;42.666;23.324;2023-06-26T03:45:13;35.15;;;31.52;;
79460;SDS011;68929;42.666;23.324;2023-06-26T03:47:38;34.75;;;31.27;;
79460;SDS011;68929;42.666;23.324;2023-06-26T03:50:03;31.92;;;28.67;;
79460;SDS011;68929;42.666;23.324;2023-06-26T03:52:29;26.92;;;24.15;;
79460;SDS011;68929;42.666;23.324;2023-06-26T03:54:56;31.67;;;28.48;;
79460;SDS011;68929;42.666;23.324;2023-06-26T03:57:33;25.50;;;23.00;;
79460;SDS011;68929;42.666;23.324;2023-06-26T03:59:58;33.92;;;30.30;;
79460;SDS011;68929;42.666;23.324;2023-06-26T04:02:24;33.30;;;29.65;;
79460;SDS011;68929;42.666;23.324;2023-06-26T04:04:49;32.75;;;29.25;;
79460;SDS011;68929;42.666;23.324;2023-06-26T04:07:15;33.00;;;29.80;;
79460;SDS011;68929;42.666;23.324;2023-06-26T04:09:40;32.67;;;29.52;;
79460;SDS011;68929;42.666;23.324;2023-06-26T04:12:05;28.63;;;22.33;;
79460;SDS011;68929;42.666;23.324;2023-06-26T04:14:31;28.83;;;25.77;;
79460;SDS011;68929;42.666;23.324;2023-06-26T04:16:57;30.90;;;28.00;;
79460;SDS011;68929;42.666;23.324;2023-06-26T04:19:23;29.58;;;26.58;;
79460;SDS011;68929;42.666;23.324;2023-06-26T04:21:48;27.85;;;25.05;;
79460;SDS011;68929;42.666;23.324;2023-06-26T04:24:14;28.52;;;25.52;;
79460;SDS011;68929;42.666;23.324;2023-06-26T04:26:39;28.33;;;25.45;;
79460;SDS011;68929;42.666;23.324;2023-06-26T04:29:06;27.23;;;24.52;;
79460;SDS011;68929;42.666;23.324;2023-06-26T04:31:32;28.15;;;23.92;;
79460;SDS011;68929;42.666;23.324;2023-06-26T04:33:57;26.25;;;23.50;;
79460;SDS011;68929;42.666;23.324;2023-06-26T04:36:24;25.60;;;23.00;;
79460;SDS011;68929;42.666;23.324;2023-06-26T04:38:53;25.08;;;22.58;;
79460;SDS011;68929;42.666;23.324;2023-06-26T04:41:19;25.98;;;23.45;;
79460;SDS011;68929;42.666;23.324;2023-06-26T04:43:44;26.95;;;24.17;;
79460;SDS011;68929;42.666;23.324;2023-06-26T04:46:10;23.00;;;20.60;;
79460;SDS011;68929;42.666;23.324;2023-06-26T04:48:35;27.05;;;24.02;;
79460;SDS011;68929;42.666;23.324;2023-06-26T04:51:00;27.27;;;24.63;;
79460;SDS011;68929;42.666;23.324;2023-06-26T04:53:26;28.00;;;25.33;;
79460;SDS011;68929;42.666;23.324;2023-06-26T04:55:52;25.65;;;23.27;;
79460;SDS011;68929;42.666;23.324;2023-06-26T04:58:18;28.40;;;25.60;;
79460;SDS011;68929;42.666;23.324;2023-06-26T05:00:45;26.80;;;24.20;;
79460;SDS011;68929;42.666;23.324;2023-06-26T05:03:14;27.42;;;24.63;;
79460;SDS011;68929;42.666;23.324;2023-06-26T05:05:47;27.20;;;24.60;;
79460;SDS011;68929;42.666;23.324;2023-06-26T05:08:31;26.80;;;24.17;;
79460;SDS011;68929;42.666;23.324;2023-06-26T05:10:56;25.70;;;22.98;;
79460;SDS011;68929;42.666;23.324;2023-06-26T05:13:25;27.52;;;24.38;;
79460;SDS011;68929;42.666;23.324;2023-06-26T05:15:51;22.75;;;20.70;;
79460;SDS011;68929;42.666;23.324;2023-06-26T05:18:17;27.27;;;24.58;;
79460;SDS011;68929;42.666;23.324;2023-06-26T05:20:49;25.52;;;22.98;;
79460;SDS011;68929;42.666;23.324;2023-06-26T05:23:17;24.95;;;22.33;;
79460;SDS011;68929;42.666;23.324;2023-06-26T05:25:43;25.65;;;23.15;;
79460;SDS011;68929;42.666;23.324;2023-06-26T05:28:09;24.70;;;22.20;;
79460;SDS011;68929;42.666;23.324;2023-06-26T05:30:38;23.08;;;20.88;;
79460;SDS011;68929;42.666;23.324;2023-06-26T05:33:03;25.08;;;22.52;;
79460;SDS011;68929;42.666;23.324;2023-06-26T05:35:31;23.52;;;21.17;;
79460;SDS011;68929;42.666;23.324;2023-06-26T05:37:57;24.70;;;22.23;;
79460;SDS011;68929;42.666;23.324;2023-06-26T05:40:23;24.92;;;22.30;;
79460;SDS011;68929;42.666;23.324;2023-06-26T05:42:49;23.20;;;21.00;;
79460;SDS011;68929;42.666;23.324;2023-06-26T05:45:15;25.38;;;23.05;;
79460;SDS011;68929;42.666;23.324;2023-06-26T05:47:40;24.70;;;22.20;;
79460;SDS011;68929;42.666;23.324;2023-06-26T05:50:07;25.02;;;22.63;;
79460;SDS011;68929;42.666;23.324;2023-06-26T05:52:35;26.02;;;23.52;;
79460;SDS011;68929;42.666;23.324;2023-06-26T05:55:08;25.10;;;22.42;;
79460;SDS011;68929;42.666;23.324;2023-06-26T05:57:39;25.42;;;21.80;;
79460;SDS011;68929;42.666;23.324;2023-06-26T06:00:10;21.85;;;19.75;;
79460;SDS011;68929;42.666;23.324;2023-06-26T06:02:37;24.70;;;21.23;;
79460;SDS011;68929;42.666;23.324;2023-06-26T06:05:03;21.35;;;19.25;;
79460;SDS011;68929;42.666;23.324;2023-06-26T06:07:28;22.27;;;20.08;;
79460;SDS011;68929;42.666;23.324;2023-06-26T06:09:53;21.38;;;19.27;;
79460;SDS011;68929;42.666;23.324;2023-06-26T06:12:19;21.27;;;19.13;;
79460;SDS011;68929;42.666;23.324;2023-06-26T06:14:44;19.23;;;17.42;;
79460;SDS011;68929;42.666;23.324;2023-06-26T06:17:09;21.67;;;19.15;;
79460;SDS011;68929;42.666;23.324;2023-06-26T06:19:35;22.58;;;20.38;;
79460;SDS011;68929;42.666;23.324;2023-06-26T06:22:00;21.00;;;19.02;;
79460;SDS011;68929;42.666;23.324;2023-06-26T06:24:26;20.80;;;18.90;;
79460;SDS011;68929;42.666;23.324;2023-06-26T06:26:51;20.15;;;18.20;;
79460;SDS011;68929;42.666;23.324;2023-06-26T06:29:16;19.30;;;17.38;;
79460;SDS011;68929;42.666;23.324;2023-06-26T06:31:44;15.48;;;14.07;;
79460;SDS011;68929;42.666;23.324;2023-06-26T06:34:09;19.58;;;17.58;;
79460;SDS011;68929;42.666;23.324;2023-06-26T06:36:34;16.10;;;14.68;;
79460;SDS011;68929;42.666;23.324;2023-06-26T06:39:00;18.92;;;17.13;;
79460;SDS011;68929;42.666;23.324;2023-06-26T06:41:25;19.15;;;17.10;;
79460;SDS011;68929;42.666;23.324;2023-06-26T06:43:53;17.63;;;16.08;;
79460;SDS011;68929;42.666;23.324;2023-06-26T06:46:19;19.58;;;17.02;;
79460;SDS011;68929;42.666;23.324;2023-06-26T06:48:44;19.55;;;17.65;;
79460;SDS011;68929;42.666;23.324;2023-06-26T06:51:11;19.30;;;17.60;;
79460;SDS011;68929;42.666;23.324;2023-06-26T06:53:36;18.15;;;16.45;;
79460;SDS011;68929;42.666;23.324;2023-06-26T06:56:02;19.33;;;17.33;;
79460;SDS011;68929;42.666;23.324;2023-06-26T06:58:27;15.30;;;13.90;;
79460;SDS011;68929;42.666;23.324;2023-06-26T07:00:53;15.63;;;13.50;;
79460;SDS011;68929;42.666;23.324;2023-06-26T07:03:28;18.15;;;14.50;;
79460;SDS011;68929;42.666;23.324;2023-06-26T07:05:53;16.55;;;14.45;;
79460;SDS011;68929;42.666;23.324;2023-06-26T07:08:18;16.38;;;14.75;;
79460;SDS011;68929;42.666;23.324;2023-06-26T07:10:47;14.85;;;13.35;;
79460;SDS011;68929;42.666;23.324;2023-06-26T07:13:13;15.85;;;14.25;;
79460;SDS011;68929;42.666;23.324;2023-06-26T07:15:38;14.77;;;13.23;;
79460;SDS011;68929;42.666;23.324;2023-06-26T07:18:06;13.93;;;10.88;;
79460;SDS011;68929;42.666;23.324;2023-06-26T07:20:36;13.90;;;12.50;;
79460;SDS011;68929;42.666;23.324;2023-06-26T07:23:03;14.90;;;12.50;;
79460;SDS011;68929;42.666;23.324;2023-06-26T07:25:29;12.98;;;11.80;;
79460;SDS011;68929;42.666;23.324;2023-06-26T07:27:54;11.65;;;10.55;;
79460;SDS011;68929;42.666;23.324;2023-06-26T07:30:19;11.55;;;10.45;;
79460;SDS011;68929;42.666;23.324;2023-06-26T07:32:45;9.77;;;8.77;;
79460;SDS011;68929;42.666;23.324;2023-06-26T07:35:10;10.93;;;9.85;;
79460;SDS011;68929;42.666;23.324;2023-06-26T07:37:36;10.45;;;9.27;;
79460;SDS011;68929;42.666;23.324;2023-06-26T07:40:11;9.20;;;8.30;;
79460;SDS011;68929;42.666;23.324;2023-06-26T07:42:37;12.07;;;9.23;;
79460;SDS011;68929;42.666;23.324;2023-06-26T07:45:03;12.15;;;9.45;;
79460;SDS011;68929;42.666;23.324;2023-06-26T07:47:37;13.55;;;9.88;;
79460;SDS011;68929;42.666;23.324;2023-06-26T07:50:04;13.07;;;9.75;;
79460;SDS011;68929;42.666;23.324;2023-06-26T07:52:30;9.13;;;7.78;;
79460;SDS011;68929;42.666;23.324;2023-06-26T07:54:56;9.63;;;8.60;;
79460;SDS011;68929;42.666;23.324;2023-06-26T07:57:22;10.15;;;8.95;;
79460;SDS011;68929;42.666;23.324;2023-06-26T07:59:47;11.68;;;10.23;;
79460;SDS011;68929;42.666;23.324;2023-06-26T08:02:13;10.10;;;9.10;;
79460;SDS011;68929;42.666;23.324;2023-06-26T08:04:38;9.48;;;7.60;;
79460;SDS011;68929;42.666;23.324;2023-06-26T08:07:04;9.98;;;8.93;;
79460;SDS011;68929;42.666;23.324;2023-06-26T08:09:33;9.10;;;8.20;;
79460;SDS011;68929;42.666;23.324;2023-06-26T08:11:58;8.77;;;7.97;;
79460;SDS011;68929;42.666;23.324;2023-06-26T08:14:28;7.35;;;6.65;;
79460;SDS011;68929;42.666;23.324;2023-06-26T08:17:02;7.90;;;7.10;;
79460;SDS011;68929;42.666;23.324;2023-06-26T08:19:46;6.03;;;5.53;;
79460;SDS011;68929;42.666;23.324;2023-06-26T08:22:16;9.60;;;7.85;;
79460;SDS011;68929;42.666;23.324;2023-06-26T08:24:42;11.07;;;7.75;;
79460;SDS011;68929;42.666;23.324;2023-06-26T08:27:08;9.77;;;8.88;;
79460;SDS011;68929;42.666;23.324;2023-06-26T08:29:33;9.65;;;8.35;;
79460;SDS011;68929;42.666;23.324;2023-06-26T08:31:58;9.95;;;8.98;;
79460;SDS011;68929;42.666;23.324;2023-06-26T08:34:24;9.93;;;8.43;;
79460;SDS011;68929;42.666;23.324;2023-06-26T08:36:49;8.77;;;8.00;;
79460;SDS011;68929;42.666;23.324;2023-06-26T08:39:15;9.65;;;8.75;;
79460;SDS011;68929;42.666;23.324;2023-06-26T08:41:40;12.05;;;8.88;;
79460;SDS011;68929;42.666;23.324;2023-06-26T08:44:10;10.32;;;8.52;;
79460;SDS011;68929;42.666;23.324;2023-06-26T08:46:40;9.15;;;7.47;;
79460;SDS011;68929;42.666;23.324;2023-06-26T08:49:13;8.90;;;8.02;;
79460;SDS011;68929;42.666;23.324;2023-06-26T08:51:43;8.38;;;7.55;;
79460;SDS011;68929;42.666;23.324;2023-06-26T08:54:17;8.32;;;6.78;;
79460;SDS011;68929;42.666;23.324;2023-06-26T08:56:59;9.30;;;6.85;;
79460;SDS011;68929;42.666;23.324;2023-06-26T08:59:25;10.23;;;7.90;;
79460;SDS011;68929;42.666;23.324;2023-06-26T09:01:52;9.52;;;6.78;;
79460;SDS011;68929;42.666;23.324;2023-06-26T09:04:17;8.27;;;7.38;;
79460;SDS011;68929;42.666;23.324;2023-06-26T09:06:43;8.60;;;7.80;;
79460;SDS011;68929;42.666;23.324;2023-06-26T09:09:09;9.52;;;7.43;;
79460;SDS011;68929;42.666;23.324;2023-06-26T09:11:35;8.75;;;7.85;;
79460;SDS011;68929;42.666;23.324;2023-06-26T09:14:05;12.38;;;8.13;;
79460;SDS011;68929;42.666;23.324;2023-06-26T09:16:49;8.75;;;7.80;;
79460;SDS011;68929;42.666;23.324;2023-06-26T09:19:15;9.20;;;7.15;;
79460;SDS011;68929;42.666;23.324;2023-06-26T09:21:41;7.57;;;6.47;;
79460;SDS011;68929;42.666;23.324;2023-06-26T09:24:08;7.75;;;6.90;;
79460;SDS011;68929;42.666;23.324;2023-06-26T09:26:37;9.18;;;7.05;;
79460;SDS011;68929;42.666;23.324;2023-06-26T09:29:07;7.57;;;6.93;;
79460;SDS011;68929;42.666;23.324;2023-06-26T09:31:33;7.53;;;6.72;;
79460;SDS011;68929;42.666;23.324;2023-06-26T09:34:01;6.97;;;6.28;;
79460;SDS011;68929;42.666;23.324;2023-06-26T09:36:28;8.85;;;7.10;;
79460;SDS011;68929;42.666;23.324;2023-06-26T09:39:04;7.95;;;7.20;;
79460;SDS011;68929;42.666;23.324;2023-06-26T09:41:40;8.30;;;7.55;;
79460;SDS011;68929;42.666;23.324;2023-06-26T09:44:12;8.25;;;7.45;;
79460;SDS011;68929;42.666;23.324;2023-06-26T09:46:48;8.40;;;7.28;;
79460;SDS011;68929;42.666;23.324;2023-06-26T09:49:14;8.27;;;7.03;;
79460;SDS011;68929;42.666;23.324;2023-06-26T09:51:40;13.95;;;7.72;;
79460;SDS011;68929;42.666;23.324;2023-06-26T09:54:16;8.30;;;7.00;;
79460;SDS011;68929;42.666;23.324;2023-06-26T09:56:42;8.20;;;6.70;;
79460;SDS011;68929;42.666;23.324;2023-06-26T09:59:08;8.02;;;7.22;;
79460;SDS011;68929;42.666;23.324;2023-06-26T10:01:39;7.80;;;6.68;;
79460;SDS011;68929;42.666;23.324;2023-06-26T10:04:08;9.98;;;6.80;;
79460;SDS011;68929;42.666;23.324;2023-06-26T10:06:35;8.35;;;7.57;;
79460;SDS011;68929;42.666;23.324;2023-06-26T10:09:04;8.45;;;7.72;;
79460;SDS011;68929;42.666;23.324;2023-06-26T10:11:33;7.35;;;6.75;;
79460;SDS011;68929;42.666;23.324;2023-06-26T10:14:03;7.15;;;6.47;;
79460;SDS011;68929;42.666;23.324;2023-06-26T10:16:31;8.10;;;6.63;;
79460;SDS011;68929;42.666;23.324;2023-06-26T10:18:58;7.25;;;6.55;;
79460;SDS011;68929;42.666;23.324;2023-06-26T10:21:35;8.00;;;7.20;;
79460;SDS011;68929;42.666;23.324;2023-06-26T10:24:03;7.38;;;6.47;;
79460;SDS011;68929;42.666;23.324;2023-06-26T10:26:31;7.95;;;6.53;;
79460;SDS011;68929;42.666;23.324;2023-06-26T10:29:04;7.05;;;6.15;;
79460;SDS011;68929;42.666;23.324;2023-06-26T10:31:31;7.10;;;6.40;;
79460;SDS011;68929;42.666;23.324;2023-06-26T10:33:58;7.15;;;6.47;;
79460;SDS011;68929;42.666;23.324;2023-06-26T10:36:32;7.22;;;6.53;;
79460;SDS011;68929;42.666;23.324;2023-06-26T10:39:04;8.32;;;7.53;;
79460;SDS011;68929;42.666;23.324;2023-06-26T10:41:36;8.65;;;7.28;;
79460;SDS011;68929;42.666;23.324;2023-06-26T10:44:10;8.20;;;7.38;;
79460;SDS011;68929;42.666;23.324;2023-06-26T10:46:51;7.15;;;6.45;;
79460;SDS011;68929;42.666;23.324;2023-06-26T10:49:21;8.32;;;7.43;;
79460;SDS011;68929;42.666;23.324;2023-06-26T10:51:50;7.57;;;6.78;;
79460;SDS011;68929;42.666;23.324;2023-06-26T10:54:17;12.43;;;7.22;;
79460;SDS011;68929;42.666;23.324;2023-06-26T10:56:45;8.50;;;6.95;;
79460;SDS011;68929;42.666;23.324;2023-06-26T10:59:21;7.75;;;6.95;;
79460;SDS011;68929;42.666;23.324;2023-06-26T11:02:04;8.68;;;7.85;;
79460;SDS011;68929;42.666;23.324;2023-06-26T11:04:37;9.10;;;8.20;;
79460;SDS011;68929;42.666;23.324;2023-06-26T11:07:18;8.68;;;7.68;;
79460;SDS011;68929;42.666;23.324;2023-06-26T11:12:38;9.40;;;6.85;;
79460;SDS011;68929;42.666;23.324;2023-06-26T11:15:11;6.60;;;6.07;;
79460;SDS011;68929;42.666;23.324;2023-06-26T11:17:43;7.70;;;6.45;;
79460;SDS011;68929;42.666;23.324;2023-06-26T11:20:10;6.72;;;6.13;;
79460;SDS011;68929;42.666;23.324;2023-06-26T11:22:37;9.05;;;6.68;;
79460;SDS011;68929;42.666;23.324;2023-06-26T11:25:04;8.82;;;6.68;;
79460;SDS011;68929;42.666;23.324;2023-06-26T11:27:31;8.90;;;7.20;;
79460;SDS011;68929;42.666;23.324;2023-06-26T11:29:57;7.75;;;7.03;;
79460;SDS011;68929;42.666;23.324;2023-06-26T11:32:22;8.20;;;6.85;;
79460;SDS011;68929;42.666;23.324;2023-06-26T11:34:48;7.57;;;6.78;;
79460;SDS011;68929;42.666;23.324;2023-06-26T11:37:16;9.73;;;7.15;;
79460;SDS011;68929;42.666;23.324;2023-06-26T11:39:42;7.72;;;7.03;;
79460;SDS011;68929;42.666;23.324;2023-06-26T11:42:07;9.13;;;7.20;;
79460;SDS011;68929;42.666;23.324;2023-06-26T11:44:32;8.25;;;7.45;;
79460;SDS011;68929;42.666;23.324;2023-06-26T11:47:05;8.52;;;6.65;;
79460;SDS011;68929;42.666;23.324;2023-06-26T11:49:31;8.45;;;7.60;;
79460;SDS011;68929;42.666;23.324;2023-06-26T11:51:57;8.77;;;7.65;;
79460;SDS011;68929;42.666;23.324;2023-06-26T11:54:26;7.97;;;7.28;;
79460;SDS011;68929;42.666;23.324;2023-06-26T11:56:57;7.72;;;7.03;;
79460;SDS011;68929;42.666;23.324;2023-06-26T11:59:34;7.68;;;6.85;;
79460;SDS011;68929;42.666;23.324;2023-06-26T12:02:07;7.00;;;6.28;;
79460;SDS011;68929;42.666;23.324;2023-06-26T12:04:38;7.30;;;6.60;;
79460;SDS011;68929;42.666;23.324;2023-06-26T12:07:08;7.93;;;7.13;;
79460;SDS011;68929;42.666;23.324;2023-06-26T12:09:43;7.60;;;6.72;;
79460;SDS011;68929;42.666;23.324;2023-06-26T12:12:14;6.85;;;6.10;;
79460;SDS011;68929;42.666;23.324;2023-06-26T12:14:41;9.10;;;7.03;;
79460;SDS011;68929;42.666;23.324;2023-06-26T12:17:09;7.78;;;6.97;;
79460;SDS011;68929;42.666;23.324;2023-06-26T12:19:45;7.80;;;6.77;;
79460;SDS011;68929;42.666;23.324;2023-06-26T12:22:15;9.02;;;8.02;;
79460;SDS011;68929;42.666;23.324;2023-06-26T12:24:41;7.13;;;6.53;;
79460;SDS011;68929;42.666;23.324;2023-06-26T12:27:12;8.55;;;6.50;;
79460;SDS011;68929;42.666;23.324;2023-06-26T12:29:40;6.05;;;5.53;;
79460;SDS011;68929;42.666;23.324;2023-06-26T12:32:15;6.95;;;6.35;;
79460;SDS011;68929;42.666;23.324;2023-06-26T12:34:40;6.85;;;5.72;;
79460;SDS011;68929;42.666;23.324;2023-06-26T12:37:10;7.65;;;6.47;;
79460;SDS011;68929;42.666;23.324;2023-06-26T12:42:18;6.75;;;6.13;;
79460;SDS011;68929;42.666;23.324;2023-06-26T12:44:45;7.50;;;6.90;;
79460;SDS011;68929;42.666;23.324;2023-06-26T12:47:12;7.93;;;7.13;;
79460;SDS011;68929;42.666;23.324;2023-06-26T12:49:40;8.15;;;7.45;;
79460;SDS011;68929;42.666;23.324;2023-06-26T12:52:13;10.52;;;6.93;;
79460;SDS011;68929;42.666;23.324;2023-06-26T12:54:40;7.63;;;6.85;;
79460;SDS011;68929;42.666;23.324;2023-06-26T12:57:07;9.00;;;7.40;;
79460;SDS011;68929;42.666;23.324;2023-06-26T12:59:33;10.18;;;7.65;;
79460;SDS011;68929;42.666;23.324;2023-06-26T13:02:00;8.30;;;7.50;;
79460;SDS011;68929;42.666;23.324;2023-06-26T13:04:26;8.20;;;7.40;;
79460;SDS011;68929;42.666;23.324;2023-06-26T13:06:51;8.60;;;7.35;;
79460;SDS011;68929;42.666;23.324;2023-06-26T13:09:20;9.23;;;8.23;;
79460;SDS011;68929;42.666;23.324;2023-06-26T13:11:46;8.57;;;7.70;;
79460;SDS011;68929;42.666;23.324;2023-06-26T13:14:12;9.20;;;8.10;;
79460;SDS011;68929;42.666;23.324;2023-06-26T13:16:38;9.02;;;7.93;;
79460;SDS011;68929;42.666;23.324;2023-06-26T13:19:04;9.63;;;7.55;;
79460;SDS011;68929;42.666;23.324;2023-06-26T13:21:29;9.45;;;7.97;;
79460;SDS011;68929;42.666;23.324;2023-06-26T13:23:55;11.23;;;7.47;;
79460;SDS011;68929;42.666;23.324;2023-06-26T13:26:21;7.32;;;6.63;;
79460;SDS011;68929;42.666;23.324;2023-06-26T13:28:47;8.38;;;7.57;;
79460;SDS011;68929;42.666;23.324;2023-06-26T13:31:15;7.82;;;7.13;;
79460;SDS011;68929;42.666;23.324;2023-06-26T13:33:41;8.20;;;7.35;;
79460;SDS011;68929;42.666;23.324;2023-06-26T13:36:06;8.35;;;6.70;;
79460;SDS011;68929;42.666;23.324;2023-06-26T13:38:32;9.57;;;7.47;;
79460;SDS011;68929;42.666;23.324;2023-06-26T13:40:59;7.57;;;6.93;;
79460;SDS011;68929;42.666;23.324;2023-06-26T13:43:25;8.68;;;7.13;;
79460;SDS011;68929;42.666;23.324;2023-06-26T13:45:51;7.22;;;6.53;;
79460;SDS011;68929;42.666;23.324;2023-06-26T13:48:17;7.53;;;5.95;;
79460;SDS011;68929;42.666;23.324;2023-06-26T13:50:43;7.90;;;7.10;;
79460;SDS011;68929;42.666;23.324;2023-06-26T13:53:12;9.85;;;6.70;;
79460;SDS011;68929;42.666;23.324;2023-06-26T13:55:42;7.43;;;6.82;;
79460;SDS011;68929;42.666;23.324;2023-06-26T13:58:08;8.70;;;6.90;;
79460;SDS011;68929;42.666;23.324;2023-06-26T14:00:34;9.90;;;7.35;;
79460;SDS011;68929;42.666;23.324;2023-06-26T14:03:01;11.15;;;7.70;;
79460;SDS011;68929;42.666;23.324;2023-06-26T14:05:28;8.52;;;7.70;;
79460;SDS011;68929;42.666;23.324;2023-06-26T14:08:01;8.65;;;7.82;;
79460;SDS011;68929;42.666;23.324;2023-06-26T14:10:29;10.82;;;8.63;;
79460;SDS011;68929;42.666;23.324;2023-06-26T14:12:55;10.52;;;7.50;;
79460;SDS011;68929;42.666;23.324;2023-06-26T14:15:21;9.20;;;8.20;;
79460;SDS011;68929;42.666;23.324;2023-06-26T14:17:46;10.32;;;8.20;;
79460;SDS011;68929;42.666;23.324;2023-06-26T14:20:15;8.60;;;7.70;;
79460;SDS011;68929;42.666;23.324;2023-06-26T14:22:42;9.68;;;7.95;;
79460;SDS011;68929;42.666;23.324;2023-06-26T14:25:11;7.88;;;7.18;;
79460;SDS011;68929;42.666;23.324;2023-06-26T14:27:38;6.40;;;5.80;;
79460;SDS011;68929;42.666;23.324;2023-06-26T14:30:03;8.02;;;7.22;;